sensor_id;sensor_type;location;lat;lon;timestamp;pressure;altitude;pressure_sealevel;temperature;humidity
73429;BME280;61643;49.564;17.412;2023-04-15T00:00:06;96972.53;;;5.66;96.93
73429;BME280;61643;49.564;17.412;2023-04-15T00:02:32;96978.69;;;5.66;97.53
73429;BME280;61643;49.564;17.412;2023-04-15T00:04:58;96972.81;;;5.64;97.10
73429;BME280;61643;49.564;17.412;2023-04-15T00:07:24;96972.75;;;5.59;96.86
73429;BME280;61643;49.564;17.412;2023-04-15T00:09:50;96977.28;;;5.59;96.80
73429;BME280;61643;49.564;17.412;2023-04-15T00:12:20;96967.63;;;5.53;98.23
73429;BME280;61643;49.564;17.412;2023-04-15T00:14:46;96973.81;;;5.58;97.88
73429;BME280;61643;49.564;17.412;2023-04-15T00:17:12;96981.00;;;5.58;97.14
73429;BME280;61643;49.564;17.412;2023-04-15T00:19:38;96981.53;;;5.55;98.95
73429;BME280;61643;49.564;17.412;2023-04-15T00:22:05;96990.34;;;5.55;99.57
73429;BME280;61643;49.564;17.412;2023-04-15T00:24:31;96994.06;;;5.54;100.00
73429;BME280;61643;49.564;17.412;2023-04-15T00:26:57;96992.94;;;5.50;100.00
73429;BME280;61643;49.564;17.412;2023-04-15T00:29:23;96992.63;;;5.41;100.00
73429;BME280;61643;49.564;17.412;2023-04-15T00:31:50;96995.06;;;5.48;100.00
73429;BME280;61643;49.564;17.412;2023-04-15T00:34:16;96996.72;;;5.54;100.00
73429;BME280;61643;49.564;17.412;2023-04-15T00:36:42;96991.66;;;5.53;100.00
73429;BME280;61643;49.564;17.412;2023-04-15T00:39:09;96991.38;;;5.54;100.00
73429;BME280;61643;49.564;17.412;2023-04-15T00:41:35;96988.97;;;5.53;100.00
73429;BME280;61643;49.564;17.412;2023-04-15T00:44:05;96992.41;;;5.48;100.00
73429;BME280;61643;49.564;17.412;2023-04-15T00:46:32;96991.81;;;5.41;100.00
73429;BME280;61643;49.564;17.412;2023-04-15T00:49:02;96992.25;;;5.28;100.00
73429;BME280;61643;49.564;17.412;2023-04-15T00:51:28;96990.16;;;5.35;100.00
73429;BME280;61643;49.564;17.412;2023-04-15T00:53:56;96998.41;;;5.33;100.00
73429;BME280;61643;49.564;17.412;2023-04-15T00:56:22;96998.13;;;5.30;100.00
73429;BME280;61643;49.564;17.412;2023-04-15T00:58:50;96997.31;;;5.29;100.00
73429;BME280;61643;49.564;17.412;2023-04-15T01:01:20;96991.34;;;5.17;100.00
73429;BME280;61643;49.564;17.412;2023-04-15T01:03:48;96993.94;;;5.12;100.00
73429;BME280;61643;49.564;17.412;2023-04-15T01:06:15;97003.28;;;5.15;100.00
73429;BME280;61643;49.564;17.412;2023-04-15T01:08:42;97003.88;;;5.17;100.00
73429;BME280;61643;49.564;17.412;2023-04-15T01:11:09;97006.72;;;5.10;100.00
73429;BME280;61643;49.564;17.412;2023-04-15T01:13:35;97007.06;;;5.19;100.00
73429;BME280;61643;49.564;17.412;2023-04-15T01:16:02;97005.66;;;5.11;100.00
73429;BME280;61643;49.564;17.412;2023-04-15T01:18:28;97015.78;;;5.09;100.00
73429;BME280;61643;49.564;17.412;2023-04-15T01:20:54;97016.84;;;5.08;99.08
73429;BME280;61643;49.564;17.412;2023-04-15T01:23:21;97020.63;;;5.12;100.00
73429;BME280;61643;49.564;17.412;2023-04-15T01:25:48;97020.97;;;5.21;100.00
73429;BME280;61643;49.564;17.412;2023-04-15T01:28:15;97020.72;;;5.22;100.00
73429;BME280;61643;49.564;17.412;2023-04-15T01:30:41;97020.72;;;5.22;100.00
73429;BME280;61643;49.564;17.412;2023-04-15T01:33:07;97022.53;;;5.17;100.00
73429;BME280;61643;49.564;17.412;2023-04-15T01:35:33;97024.84;;;5.08;100.00
73429;BME280;61643;49.564;17.412;2023-04-15T01:38:05;97023.41;;;5.01;100.00
73429;BME280;61643;49.564;17.412;2023-04-15T01:40:32;97019.94;;;5.00;100.00
73429;BME280;61643;49.564;17.412;2023-04-15T01:42:59;97019.28;;;4.88;99.06
73429;BME280;61643;49.564;17.412;2023-04-15T01:45:25;97022.25;;;4.91;98.69
73429;BME280;61643;49.564;17.412;2023-04-15T01:47:51;97021.50;;;4.96;98.87
73429;BME280;61643;49.564;17.412;2023-04-15T01:50:18;97023.19;;;5.02;96.63
73429;BME280;61643;49.564;17.412;2023-04-15T01:52:45;97026.09;;;5.01;95.66
73429;BME280;61643;49.564;17.412;2023-04-15T01:55:12;97025.06;;;5.07;95.86
73429;BME280;61643;49.564;17.412;2023-04-15T01:57:39;97023.72;;;5.04;95.28
73429;BME280;61643;49.564;17.412;2023-04-15T02:00:06;97019.94;;;5.00;95.38
73429;BME280;61643;49.564;17.412;2023-04-15T02:02:34;97022.56;;;4.95;95.53
73429;BME280;61643;49.564;17.412;2023-04-15T02:05:00;97025.47;;;4.93;95.37
73429;BME280;61643;49.564;17.412;2023-04-15T02:07:26;97025.38;;;4.83;95.16
73429;BME280;61643;49.564;17.412;2023-04-15T02:09:53;97031.75;;;4.82;95.84
73429;BME280;61643;49.564;17.412;2023-04-15T02:12:19;97030.50;;;4.90;96.05
73429;BME280;61643;49.564;17.412;2023-04-15T02:14:45;97034.78;;;4.91;95.40
73429;BME280;61643;49.564;17.412;2023-04-15T02:17:11;97037.25;;;4.97;94.63
73429;BME280;61643;49.564;17.412;2023-04-15T02:19:37;97026.41;;;4.82;94.83
73429;BME280;61643;49.564;17.412;2023-04-15T02:22:05;97032.94;;;4.70;94.90
73429;BME280;61643;49.564;17.412;2023-04-15T02:24:32;97025.78;;;4.75;94.96
73429;BME280;61643;49.564;17.412;2023-04-15T02:26:58;97028.03;;;4.62;95.71
73429;BME280;61643;49.564;17.412;2023-04-15T02:29:24;97022.09;;;4.55;95.40
73429;BME280;61643;49.564;17.412;2023-04-15T02:31:50;97021.97;;;4.44;96.38
73429;BME280;61643;49.564;17.412;2023-04-15T02:34:16;97026.22;;;4.45;95.40
73429;BME280;61643;49.564;17.412;2023-04-15T02:36:42;97024.94;;;4.48;95.79
73429;BME280;61643;49.564;17.412;2023-04-15T02:39:08;97015.50;;;4.40;95.85
73429;BME280;61643;49.564;17.412;2023-04-15T02:41:34;97019.63;;;4.31;96.15
73429;BME280;61643;49.564;17.412;2023-04-15T02:44:00;97025.09;;;4.03;97.11
73429;BME280;61643;49.564;17.412;2023-04-15T02:46:26;97034.06;;;3.97;97.82
73429;BME280;61643;49.564;17.412;2023-04-15T02:48:52;97030.19;;;3.88;98.57
73429;BME280;61643;49.564;17.412;2023-04-15T02:51:20;97033.25;;;3.80;98.91
73429;BME280;61643;49.564;17.412;2023-04-15T02:53:47;97022.13;;;3.83;98.11
73429;BME280;61643;49.564;17.412;2023-04-15T02:56:14;97013.03;;;3.79;99.19
73429;BME280;61643;49.564;17.412;2023-04-15T02:58:43;97024.94;;;3.93;98.10
73429;BME280;61643;49.564;17.412;2023-04-15T03:01:09;97019.38;;;3.94;97.60
73429;BME280;61643;49.564;17.412;2023-04-15T03:03:36;97018.16;;;4.02;97.15
73429;BME280;61643;49.564;17.412;2023-04-15T03:06:02;97021.13;;;4.06;96.62
73429;BME280;61643;49.564;17.412;2023-04-15T03:08:28;97023.25;;;4.04;96.94
73429;BME280;61643;49.564;17.412;2023-04-15T03:10:54;97022.13;;;4.00;96.78
73429;BME280;61643;49.564;17.412;2023-04-15T03:13:20;97026.31;;;3.95;97.43
73429;BME280;61643;49.564;17.412;2023-04-15T03:15:46;97032.34;;;3.91;97.71
73429;BME280;61643;49.564;17.412;2023-04-15T03:18:12;97029.69;;;3.91;97.41
73429;BME280;61643;49.564;17.412;2023-04-15T03:20:38;97030.34;;;3.98;97.10
73429;BME280;61643;49.564;17.412;2023-04-15T03:23:04;97021.16;;;3.89;96.61
73429;BME280;61643;49.564;17.412;2023-04-15T03:25:30;97034.56;;;3.94;96.72
73429;BME280;61643;49.564;17.412;2023-04-15T03:27:56;97028.09;;;3.90;97.05
73429;BME280;61643;49.564;17.412;2023-04-15T03:30:22;97029.38;;;3.87;96.59
73429;BME280;61643;49.564;17.412;2023-04-15T03:32:48;97033.09;;;3.86;97.02
73429;BME280;61643;49.564;17.412;2023-04-15T03:35:14;97027.91;;;3.80;97.41
73429;BME280;61643;49.564;17.412;2023-04-15T03:37:40;97020.53;;;3.65;97.85
73429;BME280;61643;49.564;17.412;2023-04-15T03:40:07;97020.50;;;3.48;98.98
73429;BME280;61643;49.564;17.412;2023-04-15T03:42:33;97009.00;;;3.43;98.74
73429;BME280;61643;49.564;17.412;2023-04-15T03:44:59;97013.34;;;3.32;98.91
73429;BME280;61643;49.564;17.412;2023-04-15T03:47:25;97013.72;;;3.24;99.53
73429;BME280;61643;49.564;17.412;2023-04-15T03:49:51;97015.72;;;3.34;99.57
73429;BME280;61643;49.564;17.412;2023-04-15T03:52:17;97001.94;;;3.37;99.80
73429;BME280;61643;49.564;17.412;2023-04-15T03:54:43;97007.22;;;3.48;100.00
73429;BME280;61643;49.564;17.412;2023-04-15T03:57:09;97011.66;;;3.60;100.00
73429;BME280;61643;49.564;17.412;2023-04-15T03:59:35;97003.75;;;3.65;99.81
73429;BME280;61643;49.564;17.412;2023-04-15T04:02:01;97007.13;;;3.60;99.63
73429;BME280;61643;49.564;17.412;2023-04-15T04:04:27;97011.50;;;3.50;98.24
73429;BME280;61643;49.564;17.412;2023-04-15T04:06:54;97012.59;;;3.37;98.39
73429;BME280;61643;49.564;17.412;2023-04-15T04:09:20;97014.75;;;3.23;99.78
73429;BME280;61643;49.564;17.412;2023-04-15T04:11:46;97006.72;;;3.18;99.38
73429;BME280;61643;49.564;17.412;2023-04-15T04:14:12;97025.44;;;3.12;99.44
73429;BME280;61643;49.564;17.412;2023-04-15T04:16:38;97015.06;;;3.10;99.42
73429;BME280;61643;49.564;17.412;2023-04-15T04:19:04;97026.72;;;3.09;99.19
73429;BME280;61643;49.564;17.412;2023-04-15T04:21:30;97029.28;;;2.76;99.50
73429;BME280;61643;49.564;17.412;2023-04-15T04:23:56;97040.44;;;2.89;100.00
73429;BME280;61643;49.564;17.412;2023-04-15T04:26:22;97031.94;;;2.76;100.00
73429;BME280;61643;49.564;17.412;2023-04-15T04:28:48;97034.41;;;2.94;100.00
73429;BME280;61643;49.564;17.412;2023-04-15T04:31:14;97032.53;;;3.06;100.00
73429;BME280;61643;49.564;17.412;2023-04-15T04:33:39;97033.94;;;2.97;100.00
73429;BME280;61643;49.564;17.412;2023-04-15T04:36:06;97029.53;;;3.03;100.00
73429;BME280;61643;49.564;17.412;2023-04-15T04:38:32;97030.00;;;3.00;100.00
73429;BME280;61643;49.564;17.412;2023-04-15T04:40:58;97029.38;;;3.09;100.00
73429;BME280;61643;49.564;17.412;2023-04-15T04:43:24;97039.81;;;3.27;100.00
73429;BME280;61643;49.564;17.412;2023-04-15T04:45:50;97039.81;;;3.27;100.00
73429;BME280;61643;49.564;17.412;2023-04-15T04:48:16;97043.47;;;3.38;100.00
73429;BME280;61643;49.564;17.412;2023-04-15T04:50:42;97037.50;;;3.47;100.00
73429;BME280;61643;49.564;17.412;2023-04-15T04:53:09;97042.22;;;3.57;100.00
73429;BME280;61643;49.564;17.412;2023-04-15T04:55:35;97050.53;;;3.94;100.00
73429;BME280;61643;49.564;17.412;2023-04-15T04:58:03;97054.28;;;3.98;100.00
73429;BME280;61643;49.564;17.412;2023-04-15T05:00:29;97064.53;;;4.06;100.00
73429;BME280;61643;49.564;17.412;2023-04-15T05:02:55;97061.69;;;4.13;100.00
73429;BME280;61643;49.564;17.412;2023-04-15T05:05:21;97064.78;;;4.21;100.00
73429;BME280;61643;49.564;17.412;2023-04-15T05:07:47;97062.56;;;4.35;100.00
73429;BME280;61643;49.564;17.412;2023-04-15T05:10:15;97064.25;;;4.41;100.00
73429;BME280;61643;49.564;17.412;2023-04-15T05:12:42;97060.44;;;4.54;100.00
73429;BME280;61643;49.564;17.412;2023-04-15T05:15:09;97074.94;;;4.63;100.00
73429;BME280;61643;49.564;17.412;2023-04-15T05:17:35;97075.00;;;4.68;100.00
73429;BME280;61643;49.564;17.412;2023-04-15T05:20:02;97075.38;;;4.76;100.00
73429;BME280;61643;49.564;17.412;2023-04-15T05:22:28;97071.50;;;4.84;100.00
73429;BME280;61643;49.564;17.412;2023-04-15T05:24:54;97068.69;;;4.95;99.34
73429;BME280;61643;49.564;17.412;2023-04-15T05:27:20;97070.56;;;4.95;99.78
73429;BME280;61643;49.564;17.412;2023-04-15T05:29:47;97075.94;;;5.00;99.26
73429;BME280;61643;49.564;17.412;2023-04-15T05:32:13;97078.91;;;5.04;99.64
73429;BME280;61643;49.564;17.412;2023-04-15T05:34:39;97075.00;;;5.11;98.46
73429;BME280;61643;49.564;17.412;2023-04-15T05:37:05;97076.03;;;5.10;99.15
73429;BME280;61643;49.564;17.412;2023-04-15T05:39:35;97076.41;;;5.19;98.49
73429;BME280;61643;49.564;17.412;2023-04-15T05:42:01;97063.91;;;5.19;98.46
73429;BME280;61643;49.564;17.412;2023-04-15T05:44:27;97061.03;;;5.26;98.67
73429;BME280;61643;49.564;17.412;2023-04-15T05:46:53;97069.34;;;5.29;98.83
73429;BME280;61643;49.564;17.412;2023-04-15T05:49:19;97076.31;;;5.35;99.11
73429;BME280;61643;49.564;17.412;2023-04-15T05:51:46;97069.19;;;5.41;99.56
73429;BME280;61643;49.564;17.412;2023-04-15T05:54:12;97068.75;;;5.49;97.28
73429;BME280;61643;49.564;17.412;2023-04-15T05:56:38;97059.97;;;5.54;97.17
73429;BME280;61643;49.564;17.412;2023-04-15T05:59:04;97057.34;;;5.59;97.52
73429;BME280;61643;49.564;17.412;2023-04-15T06:01:30;97067.53;;;5.62;97.16
73429;BME280;61643;49.564;17.412;2023-04-15T06:03:56;97068.41;;;5.72;98.41
73429;BME280;61643;49.564;17.412;2023-04-15T06:06:22;97068.19;;;5.79;98.70
73429;BME280;61643;49.564;17.412;2023-04-15T06:08:48;97063.97;;;5.83;98.19
73429;BME280;61643;49.564;17.412;2023-04-15T06:11:14;97071.53;;;5.91;98.25
73429;BME280;61643;49.564;17.412;2023-04-15T06:13:40;97074.00;;;5.98;98.75
73429;BME280;61643;49.564;17.412;2023-04-15T06:16:06;97072.44;;;6.02;97.28
73429;BME280;61643;49.564;17.412;2023-04-15T06:18:32;97082.88;;;6.03;97.65
73429;BME280;61643;49.564;17.412;2023-04-15T06:20:58;97082.66;;;6.10;97.54
73429;BME280;61643;49.564;17.412;2023-04-15T06:23:24;97096.25;;;6.08;96.47
73429;BME280;61643;49.564;17.412;2023-04-15T06:25:50;97092.00;;;6.07;96.75
73429;BME280;61643;49.564;17.412;2023-04-15T06:28:17;97100.81;;;6.08;98.53
73429;BME280;61643;49.564;17.412;2023-04-15T06:30:43;97106.44;;;6.11;97.92
73429;BME280;61643;49.564;17.412;2023-04-15T06:33:09;97105.41;;;6.17;98.30
73429;BME280;61643;49.564;17.412;2023-04-15T06:35:35;97101.69;;;6.18;97.11
73429;BME280;61643;49.564;17.412;2023-04-15T06:38:01;97098.81;;;6.25;97.09
73429;BME280;61643;49.564;17.412;2023-04-15T06:40:27;97104.72;;;6.32;97.90
73429;BME280;61643;49.564;17.412;2023-04-15T06:42:54;97104.78;;;6.42;97.41
73429;BME280;61643;49.564;17.412;2023-04-15T06:45:20;97117.41;;;6.52;96.00
73429;BME280;61643;49.564;17.412;2023-04-15T06:47:46;97114.00;;;6.61;96.53
73429;BME280;61643;49.564;17.412;2023-04-15T06:50:12;97119.66;;;6.70;95.68
73429;BME280;61643;49.564;17.412;2023-04-15T06:52:39;97120.81;;;6.84;94.82
73429;BME280;61643;49.564;17.412;2023-04-15T06:55:06;97113.34;;;6.86;94.49
73429;BME280;61643;49.564;17.412;2023-04-15T06:57:32;97116.06;;;6.96;93.61
73429;BME280;61643;49.564;17.412;2023-04-15T06:59:58;97125.22;;;7.05;93.20
73429;BME280;61643;49.564;17.412;2023-04-15T07:02:24;97120.16;;;7.09;93.39
73429;BME280;61643;49.564;17.412;2023-04-15T07:04:50;97124.97;;;7.12;92.83
73429;BME280;61643;49.564;17.412;2023-04-15T07:07:16;97125.28;;;7.20;92.04
73429;BME280;61643;49.564;17.412;2023-04-15T07:09:43;97129.59;;;7.26;91.88
73429;BME280;61643;49.564;17.412;2023-04-15T07:12:09;97134.41;;;7.29;90.30
73429;BME280;61643;49.564;17.412;2023-04-15T07:14:35;97134.16;;;7.36;90.42
73429;BME280;61643;49.564;17.412;2023-04-15T07:17:01;97125.88;;;7.42;89.62
73429;BME280;61643;49.564;17.412;2023-04-15T07:19:27;97136.63;;;7.48;90.08
73429;BME280;61643;49.564;17.412;2023-04-15T07:21:54;97128.88;;;7.56;88.97
73429;BME280;61643;49.564;17.412;2023-04-15T07:24:20;97141.47;;;7.56;87.57
73429;BME280;61643;49.564;17.412;2023-04-15T07:26:48;97135.59;;;7.64;88.26
73429;BME280;61643;49.564;17.412;2023-04-15T07:29:14;97131.31;;;7.63;88.35
73429;BME280;61643;49.564;17.412;2023-04-15T07:31:40;97128.63;;;7.68;90.82
73429;BME280;61643;49.564;17.412;2023-04-15T07:34:08;97135.63;;;7.74;89.89
73429;BME280;61643;49.564;17.412;2023-04-15T07:36:34;97140.97;;;7.79;86.48
73429;BME280;61643;49.564;17.412;2023-04-15T07:39:00;97137.78;;;7.87;85.51
73429;BME280;61643;49.564;17.412;2023-04-15T07:41:28;97139.97;;;7.95;85.86
73429;BME280;61643;49.564;17.412;2023-04-15T07:43:55;97135.94;;;7.98;85.12
73429;BME280;61643;49.564;17.412;2023-04-15T07:46:20;97141.31;;;8.03;86.58
73429;BME280;61643;49.564;17.412;2023-04-15T07:48:50;97139.69;;;8.02;87.28
73429;BME280;61643;49.564;17.412;2023-04-15T07:51:16;97138.06;;;8.11;86.78
73429;BME280;61643;49.564;17.412;2023-04-15T07:53:42;97136.75;;;8.08;86.66
73429;BME280;61643;49.564;17.412;2023-04-15T07:56:09;97139.69;;;8.07;85.04
73429;BME280;61643;49.564;17.412;2023-04-15T07:58:35;97141.03;;;7.99;84.13
73429;BME280;61643;49.564;17.412;2023-04-15T08:01:03;97142.91;;;8.09;86.56
73429;BME280;61643;49.564;17.412;2023-04-15T08:03:29;97148.53;;;8.12;85.03
73429;BME280;61643;49.564;17.412;2023-04-15T08:05:55;97159.50;;;8.11;86.59
73429;BME280;61643;49.564;17.412;2023-04-15T08:08:22;97150.69;;;8.10;85.85
73429;BME280;61643;49.564;17.412;2023-04-15T08:10:48;97157.66;;;8.06;85.41
73429;BME280;61643;49.564;17.412;2023-04-15T08:13:15;97164.09;;;8.10;86.17
73429;BME280;61643;49.564;17.412;2023-04-15T08:15:41;97163.81;;;8.12;84.96
73429;BME280;61643;49.564;17.412;2023-04-15T08:18:07;97168.13;;;8.13;83.83
73429;BME280;61643;49.564;17.412;2023-04-15T08:20:33;97166.75;;;8.15;85.25
73429;BME280;61643;49.564;17.412;2023-04-15T08:22:59;97167.56;;;8.11;86.07
73429;BME280;61643;49.564;17.412;2023-04-15T08:25:25;97168.38;;;8.06;83.90
73429;BME280;61643;49.564;17.412;2023-04-15T08:27:54;97168.09;;;8.08;86.44
73429;BME280;61643;49.564;17.412;2023-04-15T08:30:22;97173.44;;;8.08;86.97
73429;BME280;61643;49.564;17.412;2023-04-15T08:32:49;97167.03;;;8.09;85.74
73429;BME280;61643;49.564;17.412;2023-04-15T08:35:15;97168.09;;;8.08;85.78
73429;BME280;61643;49.564;17.412;2023-04-15T08:37:41;97169.19;;;8.17;86.05
73429;BME280;61643;49.564;17.412;2023-04-15T08:40:08;97171.34;;;8.20;85.38
73429;BME280;61643;49.564;17.412;2023-04-15T08:42:43;97180.22;;;8.30;84.67
73429;BME280;61643;49.564;17.412;2023-04-15T08:45:10;97185.03;;;8.33;84.55
73429;BME280;61643;49.564;17.412;2023-04-15T08:47:37;97184.22;;;8.43;84.66
73429;BME280;61643;49.564;17.412;2023-04-15T08:50:08;97182.09;;;8.45;82.96
73429;BME280;61643;49.564;17.412;2023-04-15T08:52:35;97196.84;;;8.48;85.09
73429;BME280;61643;49.564;17.412;2023-04-15T08:55:02;97193.38;;;8.52;85.33
73429;BME280;61643;49.564;17.412;2023-04-15T08:57:28;97190.16;;;8.60;84.31
73429;BME280;61643;49.564;17.412;2023-04-15T08:59:55;97198.19;;;8.70;84.31
73429;BME280;61643;49.564;17.412;2023-04-15T09:02:22;97201.94;;;8.74;82.53
73429;BME280;61643;49.564;17.412;2023-04-15T09:04:49;97197.38;;;8.75;82.82
73429;BME280;61643;49.564;17.412;2023-04-15T09:07:15;97195.22;;;8.77;82.59
73429;BME280;61643;49.564;17.412;2023-04-15T09:09:41;97194.94;;;8.94;83.46
73429;BME280;61643;49.564;17.412;2023-04-15T09:12:08;97204.88;;;8.93;82.95
73429;BME280;61643;49.564;17.412;2023-04-15T09:14:35;97197.66;;;8.78;81.28
73429;BME280;61643;49.564;17.412;2023-04-15T09:17:02;97211.88;;;8.79;81.88
73429;BME280;61643;49.564;17.412;2023-04-15T09:19:29;97205.94;;;8.87;80.93
73429;BME280;61643;49.564;17.412;2023-04-15T09:21:57;97207.84;;;8.76;81.37
73429;BME280;61643;49.564;17.412;2023-04-15T09:24:24;97207.81;;;8.86;82.83
73429;BME280;61643;49.564;17.412;2023-04-15T09:26:53;97201.91;;;9.00;83.42
73429;BME280;61643;49.564;17.412;2023-04-15T09:29:23;97212.63;;;9.15;84.02
73429;BME280;61643;49.564;17.412;2023-04-15T09:31:50;97209.41;;;9.13;81.59
73429;BME280;61643;49.564;17.412;2023-04-15T09:34:16;97211.28;;;9.17;82.42
73429;BME280;61643;49.564;17.412;2023-04-15T09:39:11;97212.63;;;9.15;82.38
73429;BME280;61643;49.564;17.412;2023-04-15T09:41:37;97213.97;;;9.22;83.18
73429;BME280;61643;49.564;17.412;2023-04-15T09:44:03;97215.00;;;9.36;82.85
73429;BME280;61643;49.564;17.412;2023-04-15T09:46:44;97210.09;;;9.49;80.98
73429;BME280;61643;49.564;17.412;2023-04-15T09:49:11;97216.53;;;9.53;79.92
73429;BME280;61643;49.564;17.412;2023-04-15T09:51:37;97222.72;;;9.58;80.25
73429;BME280;61643;49.564;17.412;2023-04-15T09:54:04;97218.06;;;9.79;81.75
73429;BME280;61643;49.564;17.412;2023-04-15T09:56:34;97213.66;;;9.98;80.51
73429;BME280;61643;49.564;17.412;2023-04-15T09:59:03;97216.81;;;10.15;79.66
73429;BME280;61643;49.564;17.412;2023-04-15T10:01:30;97217.81;;;10.29;79.49
73429;BME280;61643;49.564;17.412;2023-04-15T10:03:56;97211.88;;;10.32;79.31
73429;BME280;61643;49.564;17.412;2023-04-15T10:06:25;97211.38;;;10.25;77.65
73429;BME280;61643;49.564;17.412;2023-04-15T10:08:52;97214.06;;;10.25;77.25
73429;BME280;61643;49.564;17.412;2023-04-15T10:11:19;97210.06;;;10.18;78.45
73429;BME280;61643;49.564;17.412;2023-04-15T10:13:49;97219.50;;;10.10;77.14
73429;BME280;61643;49.564;17.412;2023-04-15T10:16:18;97222.44;;;10.14;77.97
73429;BME280;61643;49.564;17.412;2023-04-15T10:18:50;97218.94;;;10.18;77.31
73429;BME280;61643;49.564;17.412;2023-04-15T10:21:19;97224.56;;;10.22;76.99
73429;BME280;61643;49.564;17.412;2023-04-15T10:23:47;97217.88;;;10.09;76.32
73429;BME280;61643;49.564;17.412;2023-04-15T10:26:14;97221.91;;;10.12;76.93
73429;BME280;61643;49.564;17.412;2023-04-15T10:28:40;97216.25;;;10.13;76.63
73429;BME280;61643;49.564;17.412;2023-04-15T10:31:07;97220.50;;;10.29;76.47
73429;BME280;61643;49.564;17.412;2023-04-15T10:33:34;97219.28;;;10.51;77.82
73429;BME280;61643;49.564;17.412;2023-04-15T10:36:01;97219.75;;;10.58;76.49
73429;BME280;61643;49.564;17.412;2023-04-15T10:38:33;97216.00;;;10.59;75.93
73429;BME280;61643;49.564;17.412;2023-04-15T10:41:14;97211.47;;;10.49;74.44
73429;BME280;61643;49.564;17.412;2023-04-15T10:44:03;97207.13;;;10.53;75.99
73429;BME280;61643;49.564;17.412;2023-04-15T10:46:37;97216.41;;;10.37;75.76
73429;BME280;61643;49.564;17.412;2023-04-15T10:49:16;97210.97;;;10.42;77.01
73429;BME280;61643;49.564;17.412;2023-04-15T10:51:45;97208.03;;;10.38;77.39
73429;BME280;61643;49.564;17.412;2023-04-15T10:54:36;97210.25;;;10.31;75.07
73429;BME280;61643;49.564;17.412;2023-04-15T11:02:23;97204.38;;;10.24;76.24
73429;BME280;61643;49.564;17.412;2023-04-15T11:05:02;97205.84;;;10.46;75.54
73429;BME280;61643;49.564;17.412;2023-04-15T11:07:39;97200.66;;;10.59;75.82
73429;BME280;61643;49.564;17.412;2023-04-15T11:12:52;97200.00;;;10.72;74.07
73429;BME280;61643;49.564;17.412;2023-04-15T11:15:28;97200.22;;;10.76;73.48
73429;BME280;61643;49.564;17.412;2023-04-15T11:18:07;97194.28;;;10.79;70.97
73429;BME280;61643;49.564;17.412;2023-04-15T11:20:35;97191.09;;;11.06;73.65
73429;BME280;61643;49.564;17.412;2023-04-15T11:23:01;97188.97;;;11.26;75.94
73429;BME280;61643;49.564;17.412;2023-04-15T11:25:29;97173.00;;;11.35;74.24
73429;BME280;61643;49.564;17.412;2023-04-15T11:27:56;97183.19;;;11.38;72.51
73429;BME280;61643;49.564;17.412;2023-04-15T11:30:25;97188.97;;;11.26;71.50
73429;BME280;61643;49.564;17.412;2023-04-15T11:32:53;97195.84;;;11.38;74.54
73429;BME280;61643;49.564;17.412;2023-04-15T11:35:19;97200.16;;;11.39;73.35
73429;BME280;61643;49.564;17.412;2023-04-15T11:37:48;97201.44;;;11.46;74.56
73429;BME280;61643;49.564;17.412;2023-04-15T11:40:25;97197.13;;;11.45;71.30
73429;BME280;61643;49.564;17.412;2023-04-15T11:45:30;97200.09;;;11.44;74.25
73429;BME280;61643;49.564;17.412;2023-04-15T11:48:07;97201.69;;;11.45;73.60
73429;BME280;61643;49.564;17.412;2023-04-15T11:50:35;97207.91;;;11.45;72.09
73429;BME280;61643;49.564;17.412;2023-04-15T11:53:03;97206.88;;;11.41;73.41
73429;BME280;61643;49.564;17.412;2023-04-15T11:55:30;97215.63;;;11.52;77.54
73429;BME280;61643;49.564;17.412;2023-04-15T11:58:18;97214.56;;;11.53;75.61
73429;BME280;61643;49.564;17.412;2023-04-15T12:00:53;97222.75;;;11.43;76.67
73429;BME280;61643;49.564;17.412;2023-04-15T12:03:26;97219.63;;;11.30;75.92
73429;BME280;61643;49.564;17.412;2023-04-15T12:08:58;97214.91;;;11.46;77.96
73429;BME280;61643;49.564;17.412;2023-04-15T12:16:49;97214.66;;;11.66;77.08
73429;BME280;61643;49.564;17.412;2023-04-15T12:19:42;97220.19;;;11.80;77.54
73429;BME280;61643;49.564;17.412;2023-04-15T12:22:15;97215.28;;;11.58;71.13
73429;BME280;61643;49.564;17.412;2023-04-15T12:24:42;97217.56;;;11.75;73.53
73429;BME280;61643;49.564;17.412;2023-04-15T12:27:10;97206.91;;;11.83;73.52
73429;BME280;61643;49.564;17.412;2023-04-15T12:29:37;97219.59;;;11.83;76.31
73429;BME280;61643;49.564;17.412;2023-04-15T12:32:06;97208.75;;;11.64;74.47
73429;BME280;61643;49.564;17.412;2023-04-15T12:34:34;97217.47;;;11.80;76.41
73429;BME280;61643;49.564;17.412;2023-04-15T12:37:02;97223.91;;;11.84;75.56
73429;BME280;61643;49.564;17.412;2023-04-15T12:39:34;97219.09;;;11.81;74.24
73429;BME280;61643;49.564;17.412;2023-04-15T12:42:02;97220.41;;;11.83;74.56
73429;BME280;61643;49.564;17.412;2023-04-15T12:44:29;97212.72;;;11.96;73.70
73429;BME280;61643;49.564;17.412;2023-04-15T12:46:55;97210.88;;;11.91;72.97
73429;BME280;61643;49.564;17.412;2023-04-15T12:49:22;97217.44;;;11.85;70.47
73429;BME280;61643;49.564;17.412;2023-04-15T12:51:51;97221.28;;;11.79;69.09
73429;BME280;61643;49.564;17.412;2023-04-15T12:54:17;97228.72;;;11.87;69.81
73429;BME280;61643;49.564;17.412;2023-04-15T12:56:45;97224.16;;;12.06;69.75
73429;BME280;61643;49.564;17.412;2023-04-15T12:59:11;97225.84;;;12.21;70.00
73429;BME280;61643;49.564;17.412;2023-04-15T13:01:38;97237.97;;;12.42;69.30
73429;BME280;61643;49.564;17.412;2023-04-15T13:04:04;97248.97;;;12.27;67.32
73429;BME280;61643;49.564;17.412;2023-04-15T13:06:31;97242.56;;;12.42;67.82
73429;BME280;61643;49.564;17.412;2023-04-15T13:08:58;97243.66;;;12.41;66.75
73429;BME280;61643;49.564;17.412;2023-04-15T13:11:26;97243.44;;;12.18;66.06
73429;BME280;61643;49.564;17.412;2023-04-15T13:13:54;97246.47;;;11.93;66.49
73429;BME280;61643;49.564;17.412;2023-04-15T13:16:22;97237.38;;;11.84;67.47